Time;durP1;ratioP1;P1;durP2;ratioP2;P2;SDS_P1;SDS_P2;PMS_P1;PMS_P2;Temp;Humidity;BMP_temperature;BMP_pressure;BME280_temperature;BME280_humidity;BME280_pressure;Samples;Min_cycle;Max_cycle;Signal;HPM_P1;HPM_P2
2023/07/20 00:00:53;;;;;;;;;;;21.10;99.90;;;;;;4590626;19;19919;-25
2023/07/20 00:02:39;;;;;;;;;;;21.10;99.90;;;;;;4590753;19;19917;-25
2023/07/20 00:04:10;;;;;;;;;;;21.10;99.90;;;;;;4591577;19;20002;-25
2023/07/20 00:05:41;;;;;;;;;;;21.10;99.90;;;;;;4589778;19;19917;-26
2023/07/20 00:07:12;;;;;;;;;;;21.00;99.90;;;;;;4589585;19;19926;-28
2023/07/20 00:08:45;;;;;;;;;;;21.10;99.90;;;;;;4591322;19;20321;-25
2023/07/20 00:10:16;;;;;;;;;;;21.10;99.90;;;;;;4591749;19;19923;-24
2023/07/20 00:11:50;;;;;;;;;;;21.10;99.90;;;;;;4590936;19;19930;-25
2023/07/20 00:13:21;;;;;;;;;;;21.00;99.90;;;;;;4591204;19;20268;-25
2023/07/20 00:14:53;;;;;;;;;;;21.00;99.90;;;;;;4591517;19;19934;-27
2023/07/20 00:16:25;;;;;;;;;;;21.00;99.90;;;;;;4590560;19;19919;-26
2023/07/20 00:17:57;;;;;;;;;;;21.00;99.90;;;;;;4590938;19;19919;-26
2023/07/20 00:19:28;;;;;;;;;;;21.00;99.90;;;;;;4591303;19;19923;-25
2023/07/20 00:20:59;;;;;;;;;;;21.00;99.90;;;;;;4590775;19;19982;-25
2023/07/20 00:22:32;;;;;;;;;;;21.00;99.90;;;;;;4590588;19;20001;-25
2023/07/20 00:24:03;;;;;;;;;;;21.00;99.90;;;;;;4590862;19;19918;-27
2023/07/20 00:25:35;;;;;;;;;;;21.00;99.90;;;;;;4590868;19;19919;-25
2023/07/20 00:27:06;;;;;;;;;;;21.00;99.90;;;;;;4590269;19;19944;-24
2023/07/20 00:28:37;;;;;;;;;;;21.00;99.90;;;;;;4590314;19;19938;-26
2023/07/20 00:30:09;;;;;;;;;;;21.00;99.90;;;;;;4591386;19;20341;-25
2023/07/20 00:31:40;;;;;;;;;;;21.00;99.90;;;;;;4590587;19;19918;-30
2023/07/20 00:33:11;;;;;;;;;;;20.90;99.90;;;;;;4591414;19;20374;-28
2023/07/20 00:34:42;;;;;;;;;;;20.90;99.90;;;;;;4590781;19;19934;-27
2023/07/20 00:36:13;;;;;;;;;;;20.90;99.90;;;;;;4590893;19;19923;-23
2023/07/20 00:37:44;;;;;;;;;;;20.90;99.90;;;;;;4590630;19;19918;-27
2023/07/20 00:39:16;;;;;;;;;;;20.90;99.90;;;;;;4590655;19;19934;-27
2023/07/20 00:40:49;;;;;;;;;;;20.90;99.90;;;;;;4590681;19;19918;-27
2023/07/20 00:42:20;;;;;;;;;;;20.90;99.90;;;;;;4589881;19;19923;-25
2023/07/20 00:43:52;;;;;;;;;;;20.90;99.90;;;;;;4589274;19;19918;-26
2023/07/20 00:45:25;;;;;;;;;;;20.90;99.90;;;;;;4590107;19;20252;-25
2023/07/20 00:46:56;;;;;;;;;;;20.90;99.90;;;;;;4588403;19;19915;-26
2023/07/20 00:48:29;;;;;;;;;;;20.90;99.90;;;;;;4589465;19;19955;-24
2023/07/20 00:50:03;;;;;;;;;;;20.90;99.90;;;;;;4589939;19;19919;-24
2023/07/20 00:51:34;;;;;;;;;;;20.90;99.90;;;;;;4589137;19;19918;-25
2023/07/20 00:53:06;;;;;;;;;;;20.90;99.90;;;;;;4589282;19;19940;-26
2023/07/20 00:54:38;;;;;;;;;;;20.90;99.90;;;;;;4589514;19;20332;-26
2023/07/20 00:56:10;;;;;;;;;;;20.90;99.90;;;;;;4589656;19;19914;-26
2023/07/20 00:57:41;;;;;;;;;;;20.90;99.90;;;;;;4589969;19;19918;-25
2023/07/20 00:59:15;;;;;;;;;;;20.90;99.90;;;;;;4590679;19;20299;-25
2023/07/20 01:00:47;;;;;;;;;;;20.90;99.90;;;;;;4590312;19;19919;-25
2023/07/20 01:02:19;;;;;;;;;;;20.90;99.90;;;;;;4589892;19;20265;-29
2023/07/20 01:03:52;;;;;;;;;;;20.90;99.90;;;;;;4590042;19;19945;-31
2023/07/20 01:05:24;;;;;;;;;;;20.90;99.90;;;;;;4591800;19;20005;-30
2023/07/20 01:07:01;;;;;;;;;;;20.90;99.90;;;;;;4593293;19;19926;-25
2023/07/20 01:08:44;;;;;;;;;;;20.90;99.90;;;;;;4593357;19;20262;-29
2023/07/20 01:10:20;;;;;;;;;;;20.90;99.90;;;;;;4594316;19;19915;-25
2023/07/20 01:11:54;;;;;;;;;;;20.90;99.90;;;;;;4594605;19;19945;-25
2023/07/20 01:13:25;;;;;;;;;;;20.90;99.90;;;;;;4593628;19;19922;-24
2023/07/20 01:14:57;;;;;;;;;;;20.90;99.90;;;;;;4594753;19;19921;-25
2023/07/20 01:16:29;;;;;;;;;;;20.90;99.90;;;;;;4593320;19;19915;-27
2023/07/20 01:18:01;;;;;;;;;;;20.90;99.90;;;;;;4594467;19;19919;-24
2023/07/20 01:19:34;;;;;;;;;;;20.90;99.90;;;;;;4594476;19;19915;-28
2023/07/20 01:21:08;;;;;;;;;;;20.90;99.90;;;;;;4593173;19;20328;-24
2023/07/20 01:22:42;;;;;;;;;;;20.90;99.90;;;;;;4594502;19;19923;-24
2023/07/20 01:24:19;;;;;;;;;;;20.90;99.90;;;;;;4593146;19;19962;-28
2023/07/20 04:27:20;;;;;;;;;;;21.70;99.90;;;;;;4590581;19;19923;-27
2023/07/20 04:28:52;;;;;;;;;;;21.60;99.90;;;;;;4591547;19;19939;-30
2023/07/20 04:30:23;;;;;;;;;;;21.60;99.90;;;;;;4590513;19;19925;-27
2023/07/20 04:31:54;;;;;;;;;;;21.50;99.90;;;;;;4590102;19;19915;-25
2023/07/20 04:33:28;;;;;;;;;;;21.50;99.90;;;;;;4588207;19;19930;-25
2023/07/20 04:35:00;;;;;;;;;;;21.50;99.90;;;;;;4589046;19;19959;-25
2023/07/20 04:36:31;;;;;;;;;;;21.50;99.90;;;;;;4590413;19;19921;-25
2023/07/20 04:38:03;;;;;;;;;;;21.40;99.90;;;;;;4590513;19;20275;-24
2023/07/20 04:39:34;;;;;;;;;;;21.50;99.90;;;;;;4593130;19;19914;-26
2023/07/20 04:41:05;;;;;;;;;;;21.50;99.90;;;;;;4594448;19;19932;-26
2023/07/20 04:42:36;;;;;;;;;;;21.50;99.90;;;;;;4594522;19;19974;-25
2023/07/20 04:44:07;;;;;;;;;;;21.50;99.90;;;;;;4594186;19;19930;-24
2023/07/20 04:45:38;;;;;;;;;;;21.60;99.90;;;;;;4595040;19;19913;-29
2023/07/20 04:47:10;;;;;;;;;;;21.70;99.90;;;;;;4593918;19;19915;-26
2023/07/20 04:48:41;;;;;;;;;;;21.70;99.90;;;;;;4594923;19;19918;-29
2023/07/20 04:50:12;;;;;;;;;;;21.80;99.90;;;;;;4595040;19;20332;-29
2023/07/20 04:51:45;;;;;;;;;;;21.80;99.90;;;;;;4593957;19;19918;-25
2023/07/20 04:53:17;;;;;;;;;;;21.80;99.90;;;;;;4594456;19;19970;-26
2023/07/20 04:54:47;;;;;;;;;;;21.90;99.90;;;;;;4595173;19;19915;-25
2023/07/20 04:56:19;;;;;;;;;;;22.00;99.90;;;;;;4595119;19;19914;-29
2023/07/20 04:57:50;;;;;;;;;;;21.90;99.90;;;;;;4594519;19;19918;-27
2023/07/20 04:59:21;;;;;;;;;;;20.80;99.90;;;;;;4593954;19;19923;-26
2023/07/20 05:00:52;;;;;;;;;;;18.80;99.90;;;;;;4593664;19;19915;-29
2023/07/20 05:02:23;;;;;;;;;;;17.90;99.90;;;;;;4594677;19;19937;-23
2023/07/20 05:03:54;;;;;;;;;;;17.60;99.90;;;;;;4594825;19;19922;-23
2023/07/20 05:05:25;;;;;;;;;;;17.40;99.90;;;;;;4594518;19;20244;-24
2023/07/20 05:06:56;;;;;;;;;;;17.40;99.90;;;;;;4592405;19;19915;-24
2023/07/20 05:08:27;;;;;;;;;;;17.30;99.90;;;;;;4594350;19;20332;-24
2023/07/20 05:09:59;;;;;;;;;;;17.30;99.90;;;;;;4594155;19;19937;-28
2023/07/20 05:11:30;;;;;;;;;;;17.30;99.90;;;;;;4594788;19;19915;-25
2023/07/20 05:13:01;;;;;;;;;;;17.20;99.90;;;;;;4594930;19;19906;-25
2023/07/20 05:14:32;;;;;;;;;;;17.20;99.90;;;;;;4593824;19;19923;-24
2023/07/20 05:16:03;;;;;;;;;;;17.20;99.90;;;;;;4594036;19;20245;-23
2023/07/20 05:17:34;;;;;;;;;;;17.10;99.90;;;;;;4594544;19;19917;-24
2023/07/20 05:19:06;;;;;;;;;;;17.20;99.90;;;;;;4595123;19;19990;-24
2023/07/20 05:20:38;;;;;;;;;;;17.10;99.90;;;;;;4593606;19;19935;-23
2023/07/20 05:22:11;;;;;;;;;;;17.10;99.90;;;;;;4593211;19;19918;-24
2023/07/20 05:23:43;;;;;;;;;;;17.20;99.90;;;;;;4594212;19;19919;-24
2023/07/20 05:25:17;;;;;;;;;;;17.10;99.90;;;;;;4594738;19;19932;-24
2023/07/20 05:26:48;;;;;;;;;;;17.10;99.90;;;;;;4593255;19;20341;-26
2023/07/20 05:28:20;;;;;;;;;;;17.10;99.90;;;;;;4592937;19;19923;-24
2023/07/20 05:29:51;;;;;;;;;;;17.10;99.90;;;;;;4593591;19;19934;-24
2023/07/20 05:31:22;;;;;;;;;;;17.20;99.90;;;;;;4594602;19;19921;-24
2023/07/20 05:32:54;;;;;;;;;;;17.10;99.90;;;;;;4593613;19;19921;-24
2023/07/20 05:34:25;;;;;;;;;;;17.20;99.90;;;;;;4594125;19;19940;-25
2023/07/20 05:35:56;;;;;;;;;;;17.20;99.90;;;;;;4594306;19;19910;-24
2023/07/20 05:37:27;;;;;;;;;;;17.20;99.90;;;;;;4591530;19;19931;-24
2023/07/20 05:38:59;;;;;;;;;;;17.20;99.90;;;;;;4593565;19;19915;-23
2023/07/20 05:40:30;;;;;;;;;;;17.20;99.90;;;;;;4595161;19;19974;-27
2023/07/20 05:42:01;;;;;;;;;;;17.20;99.90;;;;;;4593854;19;19914;-24
2023/07/20 05:43:32;;;;;;;;;;;17.10;99.90;;;;;;4593191;19;20237;-24
2023/07/20 05:45:03;;;;;;;;;;;17.10;99.90;;;;;;4593183;19;19922;-27
2023/07/20 05:46:35;;;;;;;;;;;17.10;99.90;;;;;;4591806;19;19919;-26
2023/07/20 05:48:06;;;;;;;;;;;17.10;99.90;;;;;;4594298;19;19929;-24
2023/07/20 05:49:38;;;;;;;;;;;17.10;99.90;;;;;;4590862;19;19926;-25
2023/07/20 05:51:11;;;;;;;;;;;17.00;99.90;;;;;;4592596;19;19952;-24
2023/07/20 05:52:42;;;;;;;;;;;17.00;99.90;;;;;;4593931;19;19926;-26
2023/07/20 05:54:14;;;;;;;;;;;17.10;99.90;;;;;;4593142;19;20324;-23
2023/07/20 05:55:52;;;;;;;;;;;17.00;99.90;;;;;;4593261;19;20329;-27
2023/07/20 05:57:23;;;;;;;;;;;17.00;99.90;;;;;;4591279;19;19943;-24
2023/07/20 05:58:55;;;;;;;;;;;17.00;99.90;;;;;;4593873;19;20368;-27
2023/07/20 06:00:27;;;;;;;;;;;17.00;99.90;;;;;;4593771;19;19915;-27
2023/07/20 06:01:58;;;;;;;;;;;17.00;99.90;;;;;;4593567;19;19974;-25
2023/07/20 06:10:40;;;;;;;;;;;16.90;99.90;;;;;;4593411;19;19919;-23
2023/07/20 06:12:11;;;;;;;;;;;16.90;99.90;;;;;;4592670;19;19926;-25
2023/07/20 06:13:43;;;;;;;;;;;16.90;99.90;;;;;;4593224;19;19947;-26
2023/07/20 06:15:27;;;;;;;;;;;16.80;99.90;;;;;;4592564;19;20324;-23
2023/07/20 06:16:58;;;;;;;;;;;16.80;99.90;;;;;;4592386;19;19923;-23
2023/07/20 06:18:32;;;;;;;;;;;16.80;99.90;;;;;;4592701;19;19911;-29
2023/07/20 06:20:04;;;;;;;;;;;16.90;99.90;;;;;;4590920;19;20370;-24
2023/07/20 06:21:35;;;;;;;;;;;16.90;99.90;;;;;;4591617;19;19922;-27
2023/07/20 06:23:06;;;;;;;;;;;16.90;99.90;;;;;;4591681;19;19941;-24
2023/07/20 06:24:37;;;;;;;;;;;16.80;99.90;;;;;;4592595;19;19982;-23
2023/07/20 06:26:08;;;;;;;;;;;16.80;99.90;;;;;;4592267;19;19937;-27
2023/07/20 06:27:39;;;;;;;;;;;16.80;99.90;;;;;;4591405;19;19994;-24
2023/07/20 06:29:10;;;;;;;;;;;16.90;99.90;;;;;;4592208;19;19934;-23
2023/07/20 06:30:42;;;;;;;;;;;16.90;99.90;;;;;;4591797;19;19925;-24
2023/07/20 06:32:13;;;;;;;;;;;16.90;99.90;;;;;;4592685;19;20380;-26
2023/07/20 06:33:44;;;;;;;;;;;16.90;99.90;;;;;;4593302;19;19922;-24
2023/07/20 06:35:16;;;;;;;;;;;17.00;99.90;;;;;;4593289;19;19945;-26
2023/07/20 06:36:46;;;;;;;;;;;17.00;99.90;;;;;;4591095;19;19919;-23
2023/07/20 06:38:17;;;;;;;;;;;17.00;99.90;;;;;;4593886;19;19935;-24
2023/07/20 06:39:48;;;;;;;;;;;16.90;99.90;;;;;;4593272;19;19911;-24
2023/07/20 06:41:19;;;;;;;;;;;17.00;99.90;;;;;;4592799;19;19915;-24
2023/07/20 06:42:50;;;;;;;;;;;17.00;99.90;;;;;;4592695;19;19932;-23
2023/07/20 06:44:22;;;;;;;;;;;17.00;99.90;;;;;;4592804;19;20327;-23
2023/07/20 06:45:57;;;;;;;;;;;17.00;99.90;;;;;;4591552;19;20312;-23
2023/07/20 06:47:28;;;;;;;;;;;17.00;99.90;;;;;;4591269;19;19947;-26
2023/07/20 06:48:59;;;;;;;;;;;17.10;99.90;;;;;;4593007;19;19923;-23
2023/07/20 06:50:31;;;;;;;;;;;17.10;99.90;;;;;;4591598;19;19970;-27
2023/07/20 06:52:02;;;;;;;;;;;17.00;99.90;;;;;;4592024;19;20271;-24
2023/07/20 06:53:33;;;;;;;;;;;17.00;99.90;;;;;;4592780;19;19967;-27
2023/07/20 06:55:05;;;;;;;;;;;17.10;99.90;;;;;;4593126;19;19941;-27
2023/07/20 06:56:38;;;;;;;;;;;17.10;99.90;;;;;;4593272;19;20308;-25
2023/07/20 06:58:10;;;;;;;;;;;17.10;99.90;;;;;;4592408;19;19915;-23
2023/07/20 06:59:41;;;;;;;;;;;17.10;99.90;;;;;;4591314;19;20287;-22
2023/07/20 07:01:11;;;;;;;;;;;17.10;99.90;;;;;;4592088;19;19918;-30
2023/07/20 07:02:43;;;;;;;;;;;17.20;99.90;;;;;;4591275;19;19925;-24
2023/07/20 07:04:14;;;;;;;;;;;17.20;99.90;;;;;;4591808;19;19915;-24
2023/07/20 07:05:46;;;;;;;;;;;17.30;99.90;;;;;;4592667;19;20324;-27
2023/07/20 07:07:18;;;;;;;;;;;17.20;99.90;;;;;;4592088;19;20345;-27
2023/07/20 07:08:49;;;;;;;;;;;17.20;99.90;;;;;;4591938;19;19919;-26
2023/07/20 07:10:19;;;;;;;;;;;17.20;99.90;;;;;;4591148;19;20248;-25
2023/07/20 07:11:53;;;;;;;;;;;17.20;99.90;;;;;;4590866;19;19922;-24
2023/07/20 07:13:24;;;;;;;;;;;17.20;99.90;;;;;;4592380;19;20339;-24
2023/07/20 07:14:55;;;;;;;;;;;17.20;99.90;;;;;;4591852;19;19925;-28
2023/07/20 07:16:27;;;;;;;;;;;17.30;99.90;;;;;;4590870;19;19913;-24
2023/07/20 07:18:03;;;;;;;;;;;17.30;99.90;;;;;;4592618;19;20263;-24
2023/07/20 07:19:34;;;;;;;;;;;17.20;99.90;;;;;;4591992;19;19911;-23
2023/07/20 07:21:05;;;;;;;;;;;17.20;99.90;;;;;;4590933;19;19939;-23
2023/07/20 07:22:36;;;;;;;;;;;17.20;99.90;;;;;;4590605;19;19915;-27
2023/07/20 07:24:07;;;;;;;;;;;17.30;99.90;;;;;;4590914;19;19915;-26
2023/07/20 07:25:38;;;;;;;;;;;17.40;99.90;;;;;;4590770;19;19915;-23
2023/07/20 07:27:10;;;;;;;;;;;17.40;99.90;;;;;;4589749;19;19923;-26
2023/07/20 07:28:42;;;;;;;;;;;17.40;99.90;;;;;;4590811;19;19941;-28
2023/07/20 07:30:18;;;;;;;;;;;17.40;99.90;;;;;;4591639;19;19922;-23
2023/07/20 07:31:49;;;;;;;;;;;17.40;99.90;;;;;;4590120;19;19931;-24
2023/07/20 07:33:20;;;;;;;;;;;17.50;99.90;;;;;;4591094;19;19918;-23
2023/07/20 07:34:51;;;;;;;;;;;17.60;99.90;;;;;;4590371;19;20249;-24
2023/07/20 07:36:24;;;;;;;;;;;17.60;99.90;;;;;;4591606;19;19980;-24
2023/07/20 07:37:55;;;;;;;;;;;17.60;99.90;;;;;;4591158;19;19936;-24
2023/07/20 07:39:26;;;;;;;;;;;17.60;99.90;;;;;;4591156;19;20240;-23
2023/07/20 07:40:57;;;;;;;;;;;17.60;99.90;;;;;;4591751;19;19966;-24
2023/07/20 07:42:29;;;;;;;;;;;17.60;99.90;;;;;;4591880;19;19910;-23
2023/07/20 07:44:01;;;;;;;;;;;17.70;99.90;;;;;;4591100;19;20428;-22
2023/07/20 07:45:34;;;;;;;;;;;17.70;99.90;;;;;;4591091;19;19926;-25
2023/07/20 07:47:05;;;;;;;;;;;17.60;99.90;;;;;;4591319;19;19934;-24
2023/07/20 07:48:37;;;;;;;;;;;17.70;99.90;;;;;;4592095;19;19933;-24
2023/07/20 07:50:08;;;;;;;;;;;17.70;99.90;;;;;;4590877;19;19919;-24
2023/07/20 07:51:39;;;;;;;;;;;17.70;99.90;;;;;;4591312;19;20669;-27
2023/07/20 07:53:10;;;;;;;;;;;17.70;99.90;;;;;;4591046;19;19926;-24
2023/07/20 07:54:41;;;;;;;;;;;17.80;99.90;;;;;;4590709;19;19990;-22
2023/07/20 07:56:12;;;;;;;;;;;17.80;99.90;;;;;;4589858;19;19930;-26
2023/07/20 07:57:43;;;;;;;;;;;17.90;99.90;;;;;;4590024;19;19925;-24
2023/07/20 07:59:14;;;;;;;;;;;17.90;99.90;;;;;;4590906;19;19926;-24
2023/07/20 08:00:45;;;;;;;;;;;18.00;99.90;;;;;;4589729;19;19907;-23
2023/07/20 08:02:16;;;;;;;;;;;18.00;99.90;;;;;;4590446;19;20236;-23
2023/07/20 08:03:47;;;;;;;;;;;18.00;99.90;;;;;;4591412;19;20016;-25
2023/07/20 08:05:18;;;;;;;;;;;17.90;99.90;;;;;;4590641;19;20393;-24
2023/07/20 08:06:50;;;;;;;;;;;17.90;99.90;;;;;;4589969;19;19910;-23
2023/07/20 08:08:21;;;;;;;;;;;18.00;99.90;;;;;;4591146;19;19931;-28
2023/07/20 08:09:52;;;;;;;;;;;18.00;99.90;;;;;;4590909;19;19910;-26
2023/07/20 08:11:23;;;;;;;;;;;18.00;99.90;;;;;;4590338;19;19918;-23
2023/07/20 08:12:54;;;;;;;;;;;18.00;99.90;;;;;;4590788;19;19919;-22
2023/07/20 08:14:25;;;;;;;;;;;18.10;99.90;;;;;;4592481;19;19984;-27
2023/07/20 08:15:56;;;;;;;;;;;18.10;99.90;;;;;;4595513;19;20248;-24
2023/07/20 08:17:27;;;;;;;;;;;18.20;99.90;;;;;;4595251;19;19907;-24
2023/07/20 08:18:59;;;;;;;;;;;18.30;99.90;;;;;;4595748;19;20248;-24
2023/07/20 08:20:32;;;;;;;;;;;18.30;99.90;;;;;;4595754;19;19922;-23
2023/07/20 08:22:03;;;;;;;;;;;18.30;99.90;;;;;;4595745;19;19914;-28
2023/07/20 08:23:34;;;;;;;;;;;18.40;99.90;;;;;;4594138;19;19915;-27
2023/07/20 08:25:06;;;;;;;;;;;18.30;99.90;;;;;;4595119;19;20328;-25
2023/07/20 08:26:37;;;;;;;;;;;18.30;99.90;;;;;;4594857;19;19921;-26
2023/07/20 08:28:09;;;;;;;;;;;18.40;99.90;;;;;;4595503;19;19932;-23
2023/07/20 08:29:44;;;;;;;;;;;18.40;99.90;;;;;;4595588;19;20324;-24
2023/07/20 08:31:14;;;;;;;;;;;18.40;99.90;;;;;;4595415;19;19922;-23
2023/07/20 08:32:45;;;;;;;;;;;18.40;99.90;;;;;;4595963;19;19911;-25
2023/07/20 08:34:17;;;;;;;;;;;18.40;99.90;;;;;;4594948;19;19915;-25
2023/07/20 08:35:48;;;;;;;;;;;18.50;99.90;;;;;;4594920;19;19985;-27
2023/07/20 08:37:20;;;;;;;;;;;18.50;99.90;;;;;;4593821;19;19946;-23
2023/07/20 08:38:51;;;;;;;;;;;18.40;99.90;;;;;;4594535;19;19922;-24
2023/07/20 08:40:23;;;;;;;;;;;18.40;99.90;;;;;;4595113;19;19915;-25
2023/07/20 08:41:55;;;;;;;;;;;18.50;99.90;;;;;;4595274;19;19930;-24
2023/07/20 08:43:26;;;;;;;;;;;18.50;99.90;;;;;;4593948;19;19919;-24
2023/07/20 08:44:57;;;;;;;;;;;18.50;99.90;;;;;;4594568;19;19989;-23
2023/07/20 08:46:28;;;;;;;;;;;18.50;99.90;;;;;;4594452;19;19979;-24
2023/07/20 08:48:00;;;;;;;;;;;18.50;99.90;;;;;;4595047;19;20332;-23
2023/07/20 08:49:32;;;;;;;;;;;18.60;99.90;;;;;;4595314;19;19941;-26
2023/07/20 08:51:04;;;;;;;;;;;18.50;99.90;;;;;;4593845;19;19939;-26
2023/07/20 08:52:36;;;;;;;;;;;18.60;99.90;;;;;;4593665;19;20368;-23
2023/07/20 08:54:08;;;;;;;;;;;18.60;99.90;;;;;;4593765;19;19915;-26
2023/07/20 08:55:39;;;;;;;;;;;18.60;99.90;;;;;;4593723;19;19931;-25
2023/07/20 08:57:12;;;;;;;;;;;18.60;99.90;;;;;;4593437;19;19922;-22
2023/07/20 08:58:43;;;;;;;;;;;18.60;99.90;;;;;;4594228;19;20255;-29
2023/07/20 09:00:14;;;;;;;;;;;18.60;99.90;;;;;;4593377;19;19953;-28
2023/07/20 09:01:46;;;;;;;;;;;18.70;99.90;;;;;;4594005;19;19925;-25
2023/07/20 09:03:19;;;;;;;;;;;18.70;99.90;;;;;;4594271;19;19923;-26
2023/07/20 09:04:50;;;;;;;;;;;18.70;99.90;;;;;;4595158;19;19919;-24
2023/07/20 09:06:22;;;;;;;;;;;18.70;99.90;;;;;;4594969;19;19930;-23
2023/07/20 09:07:53;;;;;;;;;;;18.80;99.90;;;;;;4591582;19;19986;-23
2023/07/20 09:09:24;;;;;;;;;;;18.80;99.90;;;;;;4593170;19;19935;-26
2023/07/20 09:10:55;;;;;;;;;;;18.70;99.90;;;;;;4593627;19;19934;-24
2023/07/20 09:12:27;;;;;;;;;;;18.80;99.90;;;;;;4595208;19;19915;-22
2023/07/20 09:14:07;;;;;;;;;;;18.80;99.90;;;;;;4594336;19;19915;-23
2023/07/20 09:15:39;;;;;;;;;;;18.80;99.90;;;;;;4594073;19;19915;-23
2023/07/20 09:17:13;;;;;;;;;;;18.90;99.90;;;;;;4594860;19;19918;-27
2023/07/20 09:18:44;;;;;;;;;;;18.90;99.90;;;;;;4593655;19;19930;-24
2023/07/20 09:20:16;;;;;;;;;;;19.00;99.90;;;;;;4594285;19;19932;-23
2023/07/20 09:21:50;;;;;;;;;;;19.00;99.90;;;;;;4591319;19;20275;-25
2023/07/20 09:23:29;;;;;;;;;;;19.10;99.90;;;;;;4593923;19;19974;-24
2023/07/20 09:25:00;;;;;;;;;;;19.10;99.90;;;;;;4593731;19;20268;-24
2023/07/20 09:26:31;;;;;;;;;;;19.20;99.90;;;;;;4589993;19;20113;-23
2023/07/20 09:28:02;;;;;;;;;;;19.20;99.90;;;;;;4593254;19;20365;-23
2023/07/20 09:29:33;;;;;;;;;;;19.20;99.90;;;;;;4593839;19;20347;-24
2023/07/20 09:31:08;;;;;;;;;;;19.10;99.90;;;;;;4594493;19;19919;-29
2023/07/20 09:32:40;;;;;;;;;;;19.10;99.90;;;;;;4592689;19;19915;-24
2023/07/20 09:34:11;;;;;;;;;;;19.10;99.90;;;;;;4593451;19;19935;-27
2023/07/20 09:35:43;;;;;;;;;;;19.10;99.90;;;;;;4594248;19;19947;-26
2023/07/20 09:37:19;;;;;;;;;;;19.10;99.90;;;;;;4594919;19;19941;-24
2023/07/20 09:38:50;;;;;;;;;;;19.20;99.90;;;;;;4593523;19;20291;-23
2023/07/20 09:40:21;;;;;;;;;;;19.30;99.90;;;;;;4593666;19;19996;-23
2023/07/20 09:41:52;;;;;;;;;;;19.40;99.90;;;;;;4593780;19;19962;-27
2023/07/20 09:43:24;;;;;;;;;;;19.40;99.90;;;;;;4592977;19;19922;-23
2023/07/20 09:44:55;;;;;;;;;;;19.30;99.90;;;;;;4593293;19;20246;-27
2023/07/20 09:46:25;;;;;;;;;;;19.30;99.90;;;;;;4591252;19;19919;-24
2023/07/20 09:48:05;;;;;;;;;;;19.30;99.90;;;;;;4590060;19;19915;-24
2023/07/20 09:49:39;;;;;;;;;;;19.30;99.90;;;;;;4592250;19;19922;-24
2023/07/20 09:51:10;;;;;;;;;;;19.30;99.90;;;;;;4591382;19;19929;-24
2023/07/20 09:52:43;;;;;;;;;;;19.30;99.90;;;;;;4590842;19;20026;-28
2023/07/20 09:54:15;;;;;;;;;;;19.30;99.90;;;;;;4591571;19;19918;-23
2023/07/20 09:55:47;;;;;;;;;;;19.40;99.90;;;;;;4591346;19;19922;-26
2023/07/20 09:57:19;;;;;;;;;;;19.40;99.90;;;;;;4591300;19;19930;-24
2023/07/20 09:58:51;;;;;;;;;;;19.40;99.90;;;;;;4591543;19;20343;-22
2023/07/20 10:00:22;;;;;;;;;;;19.40;99.90;;;;;;4591144;19;19922;-24
2023/07/20 10:01:54;;;;;;;;;;;19.50;99.90;;;;;;4591233;19;19979;-23
2023/07/20 10:03:28;;;;;;;;;;;19.50;99.90;;;;;;4590737;19;19919;-25
2023/07/20 10:05:00;;;;;;;;;;;19.60;99.90;;;;;;4591033;19;19915;-23
2023/07/20 10:06:32;;;;;;;;;;;19.70;99.90;;;;;;4591051;19;20325;-23
2023/07/20 10:08:04;;;;;;;;;;;19.80;99.90;;;;;;4590809;19;19910;-26
2023/07/20 10:09:36;;;;;;;;;;;19.70;99.90;;;;;;4591068;19;19923;-23
2023/07/20 10:11:08;;;;;;;;;;;19.70;99.90;;;;;;4590884;19;19945;-25
2023/07/20 10:12:39;;;;;;;;;;;19.70;99.90;;;;;;4590962;19;19925;-29
2023/07/20 10:14:12;;;;;;;;;;;19.60;99.90;;;;;;4590839;19;20360;-27
2023/07/20 10:15:45;;;;;;;;;;;19.60;99.90;;;;;;4590770;19;19919;-27
2023/07/20 10:17:16;;;;;;;;;;;19.60;99.90;;;;;;4592470;19;19914;-23
2023/07/20 10:19:07;;;;;;;;;;;19.50;99.90;;;;;;4593766;19;19914;-24
2023/07/20 10:20:39;;;;;;;;;;;19.50;99.90;;;;;;4593123;19;19922;-24
2023/07/20 10:22:20;;;;;;;;;;;19.60;99.90;;;;;;4593024;19;20232;-24
2023/07/20 10:23:51;;;;;;;;;;;19.70;99.90;;;;;;4591359;19;19941;-24
2023/07/20 10:25:22;;;;;;;;;;;19.80;99.90;;;;;;4592322;19;19918;-24
2023/07/20 10:26:54;;;;;;;;;;;19.80;99.90;;;;;;4592205;19;19934;-25
2023/07/20 10:28:25;;;;;;;;;;;19.90;99.90;;;;;;4591875;19;19971;-26
2023/07/20 10:29:58;;;;;;;;;;;19.90;99.90;;;;;;4592414;19;19952;-28
2023/07/20 10:31:29;;;;;;;;;;;20.00;99.90;;;;;;4592038;19;19986;-25
2023/07/20 10:33:02;;;;;;;;;;;20.00;99.90;;;;;;4592250;19;20336;-26
2023/07/20 10:34:33;;;;;;;;;;;20.10;99.90;;;;;;4592346;19;19911;-26
2023/07/20 10:36:06;;;;;;;;;;;20.20;99.90;;;;;;4591858;19;20253;-25
2023/07/20 10:37:49;;;;;;;;;;;20.30;99.90;;;;;;4591359;19;19967;-24
2023/07/20 10:39:27;;;;;;;;;;;20.30;99.90;;;;;;4592147;19;19954;-24
2023/07/20 10:40:59;;;;;;;;;;;20.40;99.90;;;;;;4591489;19;19915;-25
2023/07/20 10:42:32;;;;;;;;;;;20.50;99.90;;;;;;4592412;19;19915;-24
2023/07/20 10:44:05;;;;;;;;;;;20.50;99.90;;;;;;4592886;19;19919;-24
2023/07/20 10:45:38;;;;;;;;;;;20.60;99.90;;;;;;4592215;19;19922;-25
2023/07/20 10:47:10;;;;;;;;;;;20.60;99.90;;;;;;4591979;19;19914;-26
2023/07/20 10:49:00;;;;;;;;;;;20.60;99.90;;;;;;4592238;19;19923;-25
2023/07/20 10:50:34;;;;;;;;;;;20.70;99.90;;;;;;4592363;19;19915;-25
2023/07/20 10:52:05;;;;;;;;;;;20.70;99.90;;;;;;4593120;19;20233;-26
2023/07/20 10:53:36;;;;;;;;;;;20.80;99.90;;;;;;4592170;19;19930;-25
2023/07/20 10:55:11;;;;;;;;;;;20.90;99.90;;;;;;4592699;19;19975;-27
2023/07/20 10:56:51;;;;;;;;;;;21.00;99.90;;;;;;4593908;19;19943;-29
2023/07/20 10:58:28;;;;;;;;;;;21.00;99.90;;;;;;4594014;19;20327;-25
2023/07/20 11:00:11;;;;;;;;;;;20.90;99.90;;;;;;4592081;19;19918;-25
2023/07/20 11:01:43;;;;;;;;;;;20.90;99.90;;;;;;4591124;19;19994;-25
2023/07/20 11:03:22;;;;;;;;;;;20.90;99.90;;;;;;4591057;19;19922;-25
2023/07/20 11:04:53;;;;;;;;;;;20.80;99.90;;;;;;4591526;19;20265;-24
2023/07/20 11:06:24;;;;;;;;;;;20.90;99.90;;;;;;4590524;19;19915;-24
2023/07/20 11:07:56;;;;;;;;;;;21.00;99.90;;;;;;4590324;19;19918;-25
2023/07/20 11:09:32;;;;;;;;;;;21.00;99.90;;;;;;4592447;19;19914;-26
2023/07/20 11:11:21;;;;;;;;;;;20.90;99.90;;;;;;4591004;19;19915;-28
2023/07/20 11:13:12;;;;;;;;;;;20.90;99.90;;;;;;4592571;19;19925;-23
2023/07/20 11:14:56;;;;;;;;;;;21.10;99.90;;;;;;4590418;19;19941;-25
2023/07/20 11:16:33;;;;;;;;;;;21.10;99.90;;;;;;4590223;19;19933;-25
2023/07/20 11:18:11;;;;;;;;;;;21.10;99.90;;;;;;4590591;19;20275;-25
2023/07/20 11:19:42;;;;;;;;;;;21.20;99.90;;;;;;4591160;19;19918;-25
2023/07/20 11:21:13;;;;;;;;;;;21.10;99.90;;;;;;4591457;19;20313;-26
2023/07/20 11:22:44;;;;;;;;;;;21.10;99.90;;;;;;4591711;19;19918;-29
2023/07/20 11:24:17;;;;;;;;;;;21.20;99.90;;;;;;4590315;19;19911;-29
2023/07/20 11:25:49;;;;;;;;;;;21.40;99.90;;;;;;4590989;19;19967;-25
2023/07/20 11:27:22;;;;;;;;;;;21.40;99.90;;;;;;4591131;19;20653;-30
2023/07/20 11:28:53;;;;;;;;;;;21.40;99.90;;;;;;4591088;19;19937;-25
2023/07/20 11:30:25;;;;;;;;;;;21.50;99.90;;;;;;4591039;19;20277;-28
2023/07/20 11:31:56;;;;;;;;;;;21.50;99.90;;;;;;4591667;19;19926;-29
2023/07/20 11:33:27;;;;;;;;;;;21.50;99.90;;;;;;4589862;19;19974;-25
2023/07/20 11:34:59;;;;;;;;;;;21.30;99.90;;;;;;4590750;19;19910;-25
2023/07/20 11:36:30;;;;;;;;;;;21.20;99.90;;;;;;4590304;19;19926;-25
2023/07/20 11:38:01;;;;;;;;;;;21.00;99.90;;;;;;4590657;19;20359;-25
2023/07/20 11:39:32;;;;;;;;;;;20.90;99.90;;;;;;4590841;19;20261;-29
2023/07/20 11:41:03;;;;;;;;;;;20.80;99.90;;;;;;4589327;19;19923;-25
2023/07/20 11:42:34;;;;;;;;;;;20.90;99.90;;;;;;4591118;19;20255;-27
2023/07/20 11:44:07;;;;;;;;;;;20.90;99.90;;;;;;4591465;19;19967;-25
2023/07/20 11:45:39;;;;;;;;;;;20.80;99.90;;;;;;4590420;19;20001;-25
2023/07/20 11:47:11;;;;;;;;;;;20.90;99.90;;;;;;4590448;19;19926;-25
2023/07/20 11:48:43;;;;;;;;;;;20.80;99.90;;;;;;4588209;19;19927;-26
2023/07/20 11:50:15;;;;;;;;;;;20.90;99.90;;;;;;4589188;19;19983;-30
2023/07/20 11:51:47;;;;;;;;;;;20.90;99.90;;;;;;4590525;19;19915;-29
2023/07/20 11:53:17;;;;;;;;;;;20.90;99.90;;;;;;4591157;19;20000;-26
2023/07/20 11:54:49;;;;;;;;;;;20.90;99.90;;;;;;4589673;19;19922;-27
2023/07/20 11:56:20;;;;;;;;;;;20.90;99.90;;;;;;4589854;19;19911;-25
2023/07/20 11:58:00;;;;;;;;;;;20.90;99.90;;;;;;4590461;19;19911;-25
2023/07/20 11:59:32;;;;;;;;;;;20.90;99.90;;;;;;4590035;19;19990;-31
2023/07/20 12:01:03;;;;;;;;;;;20.90;99.90;;;;;;4591375;19;19923;-25
2023/07/20 12:02:34;;;;;;;;;;;21.10;99.90;;;;;;4590654;19;19915;-25
2023/07/20 12:05:56;;;;;;;;;;;21.20;99.90;;;;;;4589584;19;19915;-25
2023/07/20 12:07:28;;;;;;;;;;;21.30;99.90;;;;;;4589134;19;20439;-29